createdAt,value
2018-03-07T00:01:02.824Z,1.10
2018-03-07T00:03:30.327Z,1.10
2018-03-07T00:05:57.834Z,1.20
2018-03-07T00:08:25.332Z,1.20
2018-03-07T00:10:52.900Z,1.10
2018-03-07T00:13:20.415Z,1.10
2018-03-07T00:15:47.914Z,1.10
2018-03-07T00:18:15.416Z,1.10
2018-03-07T00:20:42.903Z,1.10
2018-03-07T00:23:10.421Z,1.10
2018-03-07T00:25:37.910Z,1.10
2018-03-07T00:28:05.408Z,1.10
2018-03-07T00:30:32.915Z,1.10
2018-03-07T00:33:00.407Z,1.10
2018-03-07T00:35:27.903Z,1.10
2018-03-07T00:37:55.411Z,1.10
2018-03-07T00:40:22.915Z,1.10
2018-03-07T00:42:50.800Z,1.10
2018-03-07T00:45:18.298Z,1.10
2018-03-07T00:47:46.227Z,1.00
2018-03-07T00:50:13.713Z,1.00
2018-03-07T00:52:41.217Z,1.00
2018-03-07T00:55:09.092Z,1.00
2018-03-07T00:57:36.579Z,1.00
2018-03-07T01:00:04.070Z,1.00
2018-03-07T01:02:31.551Z,1.00
2018-03-07T01:04:59.438Z,0.90
2018-03-07T01:07:26.925Z,0.90
2018-03-07T01:09:54.432Z,0.90
2018-03-07T01:12:22.315Z,1.00
2018-03-07T01:14:49.799Z,1.00
2018-03-07T01:17:17.336Z,1.00
2018-03-07T01:19:44.832Z,1.00
2018-03-07T01:22:12.355Z,1.00
2018-03-07T01:24:39.844Z,1.00
2018-03-07T01:27:07.378Z,1.00
2018-03-07T01:29:35.647Z,1.00
2018-03-07T01:32:03.173Z,1.00
2018-03-07T01:34:30.678Z,1.00
2018-03-07T01:36:58.169Z,1.00
2018-03-07T01:39:25.683Z,1.00
2018-03-07T01:41:53.174Z,1.00
2018-03-07T01:44:20.679Z,1.00
2018-03-07T01:46:48.561Z,0.90
2018-03-07T01:49:16.059Z,0.90
2018-03-07T01:51:55.553Z,0.90
2018-03-07T01:54:23.038Z,0.80
2018-03-07T01:56:50.535Z,0.80
2018-03-07T01:59:18.453Z,0.80
2018-03-07T02:01:45.978Z,0.80
2018-03-07T02:04:13.508Z,0.80
2018-03-07T02:06:41.407Z,0.80
2018-03-07T02:09:08.959Z,0.80
2018-03-07T02:11:36.468Z,0.80
2018-03-07T02:14:03.955Z,0.80
2018-03-07T02:16:31.839Z,0.80
2018-03-07T02:18:59.363Z,0.80
2018-03-07T02:21:27.687Z,0.90
2018-03-07T02:23:55.190Z,0.90
2018-03-07T02:26:22.690Z,0.90
2018-03-07T02:28:50.168Z,0.90
2018-03-07T02:31:17.667Z,0.90
2018-03-07T02:33:45.167Z,1.00
2018-03-07T02:36:24.541Z,1.00
2018-03-07T02:38:52.048Z,1.00
2018-03-07T02:41:19.543Z,1.10
2018-03-07T02:43:47.052Z,1.10
2018-03-07T02:46:14.545Z,1.10
2018-03-07T02:48:42.066Z,1.20
2018-03-07T02:51:09.972Z,1.20
2018-03-07T02:53:37.457Z,1.20
2018-03-07T02:56:05.698Z,1.30
2018-03-07T02:58:33.566Z,1.30
2018-03-07T03:01:01.051Z,1.30
2018-03-07T03:03:28.562Z,1.30
2018-03-07T03:05:56.059Z,1.30
2018-03-07T03:08:23.560Z,1.40
2018-03-07T03:10:51.457Z,1.40
2018-03-07T03:13:18.949Z,1.40
2018-03-07T03:15:46.434Z,1.50
2018-03-07T03:18:14.343Z,1.50
2018-03-07T03:20:41.835Z,1.50
2018-03-07T03:23:09.323Z,1.50
2018-03-07T03:25:37.222Z,1.60
2018-03-07T03:28:04.712Z,1.60
2018-03-07T03:30:32.201Z,1.60
2018-03-07T03:33:00.096Z,1.70
2018-03-07T03:35:27.620Z,1.70
2018-03-07T03:37:55.499Z,1.70
2018-03-07T03:40:22.995Z,1.70
2018-03-07T03:42:50.494Z,1.70
2018-03-07T03:45:17.979Z,1.70
2018-03-07T03:47:45.490Z,1.80
2018-03-07T03:50:13.004Z,1.80
2018-03-07T03:52:40.496Z,1.80
2018-03-07T03:55:07.976Z,1.80
2018-03-07T03:57:35.499Z,1.80
2018-03-07T04:00:02.987Z,1.80
2018-03-07T04:02:30.495Z,1.90
2018-03-07T04:04:58.013Z,1.90
2018-03-07T04:07:25.900Z,1.90
2018-03-07T04:09:53.403Z,1.90
2018-03-07T04:12:20.908Z,1.90
2018-03-07T04:14:48.416Z,2.00
2018-03-07T04:17:15.902Z,2.00
2018-03-07T04:19:43.837Z,2.00
2018-03-07T04:22:11.314Z,2.00
2018-03-07T04:24:38.825Z,2.00
2018-03-07T04:27:06.318Z,2.00
2018-03-07T04:29:33.805Z,2.00
2018-03-07T04:32:01.707Z,2.00
2018-03-07T04:34:29.203Z,2.00
2018-03-07T04:36:56.699Z,2.00
2018-03-07T04:39:24.215Z,2.00
2018-03-07T04:41:51.720Z,2.00
2018-03-07T04:44:19.215Z,2.00
2018-03-07T04:46:46.702Z,2.10
2018-03-07T04:49:14.195Z,2.10
2018-03-07T04:51:41.684Z,2.10
2018-03-07T04:54:09.184Z,2.10
2018-03-07T04:56:37.091Z,2.10
2018-03-07T04:59:04.581Z,2.10
2018-03-07T05:01:32.067Z,2.10
2018-03-07T05:03:59.979Z,2.20
2018-03-07T05:06:27.473Z,2.20
2018-03-07T05:08:54.967Z,2.30
2018-03-07T05:11:22.454Z,2.30
2018-03-07T05:13:49.948Z,2.30
2018-03-07T05:16:17.446Z,2.30
2018-03-07T05:18:44.968Z,2.30
2018-03-07T05:21:12.458Z,2.30
2018-03-07T05:23:39.951Z,2.30
2018-03-07T05:26:07.447Z,2.20
2018-03-07T05:28:35.348Z,2.20
2018-03-07T05:31:02.831Z,2.20
2018-03-07T05:33:30.323Z,2.20
2018-03-07T05:35:58.218Z,2.20
2018-03-07T05:38:25.707Z,2.20
2018-03-07T05:40:53.211Z,2.20
2018-03-07T05:43:21.082Z,2.30
2018-03-07T05:45:48.564Z,2.30
2018-03-07T05:48:16.060Z,2.30
2018-03-07T05:50:43.575Z,2.30
2018-03-07T05:53:11.066Z,2.30
2018-03-07T05:55:38.572Z,2.30
2018-03-07T05:58:06.448Z,2.40
2018-03-07T06:00:33.955Z,2.40
2018-03-07T06:03:01.457Z,2.40
2018-03-07T06:05:29.346Z,2.50
2018-03-07T06:07:56.844Z,2.50
2018-03-07T06:10:24.338Z,2.50
2018-03-07T06:12:52.227Z,2.50
2018-03-07T06:15:19.731Z,2.50
2018-03-07T06:17:47.221Z,2.50
2018-03-07T06:20:14.738Z,2.50
2018-03-07T06:22:42.224Z,2.60
2018-03-07T06:25:09.727Z,2.60
2018-03-07T06:27:37.228Z,2.60
2018-03-07T06:30:05.110Z,2.60
2018-03-07T06:32:32.623Z,2.60
2018-03-07T06:35:00.128Z,2.60
2018-03-07T06:37:27.626Z,2.70
2018-03-07T06:39:55.142Z,2.70
2018-03-07T06:42:22.667Z,2.70
2018-03-07T06:44:50.162Z,2.80
2018-03-07T06:47:17.667Z,2.80
2018-03-07T06:49:45.178Z,2.90
2018-03-07T06:52:12.687Z,2.90
2018-03-07T06:54:40.199Z,2.90
2018-03-07T06:57:07.727Z,3.00
2018-03-07T06:59:35.224Z,3.00
2018-03-07T07:02:02.723Z,3.00
2018-03-07T07:04:30.231Z,3.10
2018-03-07T07:06:57.728Z,3.10
2018-03-07T07:09:25.235Z,3.20
2018-03-07T07:11:52.775Z,3.30
2018-03-07T07:14:20.680Z,3.30
2018-03-07T07:16:48.186Z,3.30
2018-03-07T07:19:15.710Z,3.40
2018-03-07T07:21:43.215Z,3.40
2018-03-07T07:24:11.126Z,3.50
2018-03-07T07:26:38.618Z,3.50
2018-03-07T07:29:06.142Z,3.60
2018-03-07T07:31:33.639Z,3.70
2018-03-07T07:34:01.195Z,3.70
2018-03-07T07:36:28.715Z,3.80
2018-03-07T07:38:56.211Z,3.80
2018-03-07T07:41:23.712Z,3.90
2018-03-07T07:43:51.216Z,4.00
2018-03-07T07:46:18.721Z,4.00
2018-03-07T07:48:46.237Z,4.10
2018-03-07T07:51:13.740Z,4.20
2018-03-07T07:53:41.231Z,4.20
2018-03-07T07:56:08.736Z,4.30
2018-03-07T07:58:36.257Z,4.40
2018-03-07T08:01:03.755Z,4.50
2018-03-07T08:03:31.661Z,4.70
2018-03-07T08:05:59.200Z,4.80
2018-03-07T08:08:26.708Z,4.80
2018-03-07T08:10:54.203Z,5.00
2018-03-07T08:13:21.712Z,5.10
2018-03-07T08:15:49.231Z,5.20
2018-03-07T08:18:16.814Z,5.40
2018-03-07T08:20:44.292Z,5.60
2018-03-07T08:23:11.791Z,5.80
2018-03-07T08:25:39.342Z,6.00
2018-03-07T08:28:06.856Z,6.10
2018-03-07T08:30:34.367Z,6.20
2018-03-07T08:33:01.859Z,6.20
2018-03-07T08:35:29.355Z,6.30
2018-03-07T08:37:57.252Z,6.40
2018-03-07T08:40:24.755Z,6.40
2018-03-07T08:42:52.267Z,6.40
2018-03-07T08:45:19.761Z,6.30
2018-03-07T08:47:47.256Z,6.40
2018-03-07T08:50:15.153Z,6.50
2018-03-07T08:52:42.639Z,6.50
2018-03-07T08:55:10.147Z,6.70
2018-03-07T08:57:38.036Z,7.60
2018-03-07T09:00:05.547Z,7.60
2018-03-07T09:02:33.083Z,7.90
2018-03-07T09:05:00.582Z,8.30
2018-03-07T09:07:28.476Z,8.80
2018-03-07T09:09:55.967Z,8.80
2018-03-07T09:12:23.480Z,8.80
2018-03-07T09:14:50.967Z,8.50
2018-03-07T09:17:18.496Z,8.70
2018-03-07T09:19:46.000Z,9.20
2018-03-07T09:22:13.498Z,9.50
2018-03-07T09:24:41.408Z,10.10
2018-03-07T09:27:08.907Z,10.10
2018-03-07T09:29:36.797Z,10.60
2018-03-07T09:32:04.340Z,10.60
2018-03-07T09:34:32.234Z,11.10
2018-03-07T09:36:59.740Z,11.10
2018-03-07T09:39:27.263Z,11.00
2018-03-07T09:41:54.770Z,11.00
2018-03-07T09:44:22.667Z,11.10
2018-03-07T09:46:50.175Z,11.10
2018-03-07T09:49:17.672Z,11.10
2018-03-07T09:51:45.184Z,10.60
2018-03-07T09:54:12.698Z,10.90
2018-03-07T09:56:40.255Z,10.80
2018-03-07T09:59:07.716Z,10.60
2018-03-07T10:01:35.220Z,10.50
2018-03-07T10:04:02.737Z,10.60
2018-03-07T10:06:30.239Z,10.80
2018-03-07T10:08:57.755Z,11.00
2018-03-07T10:11:25.252Z,11.20
2018-03-07T10:13:52.761Z,11.10
2018-03-07T10:16:20.273Z,11.10
2018-03-07T10:18:48.188Z,11.70
2018-03-07T10:21:15.689Z,11.70
2018-03-07T10:23:43.218Z,12.30
2018-03-07T10:26:10.710Z,12.80
2018-03-07T10:28:38.213Z,12.90
2018-03-07T10:31:05.726Z,13.20
2018-03-07T10:33:33.239Z,13.50
2018-03-07T10:36:00.732Z,13.70
2018-03-07T10:38:28.217Z,14.00
2018-03-07T10:40:55.711Z,14.00
2018-03-07T10:43:23.199Z,14.20
2018-03-07T10:45:50.696Z,14.10
2018-03-07T10:48:18.583Z,14.40
2018-03-07T10:50:46.147Z,14.40
2018-03-07T10:53:13.669Z,14.60
2018-03-07T10:55:41.672Z,14.90
2018-03-07T10:58:09.200Z,14.90
2018-03-07T11:00:38.892Z,15.00
2018-03-07T11:03:06.407Z,15.00
2018-03-07T11:05:34.616Z,15.30
2018-03-07T11:08:02.226Z,14.70
2018-03-07T11:10:29.728Z,14.90
2018-03-07T11:12:57.234Z,15.00
2018-03-07T11:15:24.756Z,15.50
2018-03-07T11:17:52.247Z,16.00
2018-03-07T11:20:19.875Z,15.90
2018-03-07T11:22:47.818Z,15.90
2018-03-07T11:25:15.327Z,15.90
2018-03-07T11:27:43.030Z,15.90
2018-03-07T11:30:10.576Z,15.20
2018-03-07T11:32:38.073Z,15.00
2018-03-07T11:35:05.580Z,14.20
2018-03-07T11:37:33.081Z,14.50
2018-03-07T11:40:00.583Z,15.00
2018-03-07T11:42:28.088Z,15.30
2018-03-07T11:44:55.604Z,15.50
2018-03-07T11:47:23.091Z,15.50
2018-03-07T11:49:50.599Z,15.60
2018-03-07T11:52:18.488Z,15.30
2018-03-07T11:54:45.983Z,15.30
2018-03-07T11:57:13.484Z,14.90
2018-03-07T11:59:40.967Z,14.80
2018-03-07T12:02:08.466Z,14.50
2018-03-07T12:04:35.967Z,14.10
2018-03-07T12:07:03.517Z,13.80
2018-03-07T12:09:31.031Z,13.80
2018-03-07T12:11:58.540Z,13.80
2018-03-07T12:14:26.062Z,13.60
2018-03-07T12:16:53.664Z,14.10
2018-03-07T12:19:21.198Z,14.30
2018-03-07T12:21:49.089Z,14.20
2018-03-07T12:24:16.587Z,14.20
2018-03-07T12:26:44.089Z,14.60
2018-03-07T12:29:11.571Z,13.90
2018-03-07T12:31:39.099Z,14.20
2018-03-07T12:34:06.591Z,14.70
2018-03-07T12:36:34.092Z,14.80
2018-03-07T12:39:01.986Z,14.40
2018-03-07T12:41:29.491Z,14.40
2018-03-07T12:43:56.990Z,14.70
2018-03-07T12:46:24.889Z,15.70
2018-03-07T12:48:52.414Z,15.70
2018-03-07T12:51:19.903Z,15.70
2018-03-07T12:53:47.417Z,16.30
2018-03-07T12:56:15.305Z,16.60
2018-03-07T12:58:42.806Z,16.60
2018-03-07T13:01:10.319Z,16.20
2018-03-07T13:03:37.815Z,16.50
2018-03-07T13:06:05.299Z,16.50
2018-03-07T13:08:32.824Z,16.40
2018-03-07T13:11:00.316Z,16.60
2018-03-07T13:13:27.828Z,16.90
2018-03-07T13:15:55.514Z,17.10
2018-03-07T13:18:23.060Z,17.30
2018-03-07T13:20:50.580Z,17.20
2018-03-07T13:23:18.094Z,17.50
2018-03-07T13:25:45.606Z,17.70
2018-03-07T13:28:13.114Z,17.90
2018-03-07T13:30:40.609Z,18.00
2018-03-07T13:33:08.182Z,18.10
2018-03-07T13:35:35.718Z,18.00
2018-03-07T13:38:03.613Z,18.60
2018-03-07T13:40:31.351Z,18.70
2018-03-07T13:42:58.866Z,19.00
2018-03-07T13:45:26.357Z,19.30
2018-03-07T13:47:54.243Z,19.90
2018-03-07T13:50:21.732Z,19.90
2018-03-07T13:52:49.239Z,20.20
2018-03-07T13:55:16.748Z,20.50
2018-03-07T13:57:44.253Z,20.50
2018-03-07T14:00:12.138Z,20.50
2018-03-07T14:02:39.686Z,20.40
2018-03-07T14:05:07.369Z,20.00
2018-03-07T14:07:34.860Z,20.00
2018-03-07T14:10:02.373Z,19.90
2018-03-07T14:12:29.928Z,19.50
2018-03-07T14:14:57.419Z,19.80
2018-03-07T14:17:24.917Z,20.10
2018-03-07T14:19:52.795Z,19.50
2018-03-07T14:22:20.682Z,18.60
2018-03-07T14:24:48.211Z,18.60
2018-03-07T14:27:16.116Z,17.00
2018-03-07T14:29:43.671Z,17.00
2018-03-07T14:32:11.170Z,16.40
2018-03-07T14:34:38.665Z,15.80
2018-03-07T14:37:06.327Z,15.20
2018-03-07T14:39:34.231Z,14.40
2018-03-07T14:42:01.743Z,14.40
2018-03-07T14:44:29.645Z,13.80
2018-03-07T14:46:57.153Z,13.80
2018-03-07T14:49:24.652Z,13.60
2018-03-07T14:51:52.154Z,13.50
2018-03-07T14:54:19.658Z,13.20
2018-03-07T14:56:47.148Z,13.00
2018-03-07T14:59:14.644Z,13.00
2018-03-07T15:01:42.546Z,12.80
2018-03-07T15:04:10.079Z,12.80
2018-03-07T15:06:37.959Z,12.60
2018-03-07T15:09:05.459Z,12.70
2018-03-07T15:11:32.958Z,12.30
2018-03-07T15:14:00.455Z,12.10
2018-03-07T15:16:28.959Z,12.00
2018-03-07T15:18:56.472Z,11.80
2018-03-07T15:21:24.016Z,11.60
2018-03-07T15:23:51.959Z,11.20
2018-03-07T15:26:19.487Z,11.20
2018-03-07T15:28:46.992Z,11.00
2018-03-07T15:31:15.001Z,10.70
2018-03-07T15:33:42.492Z,10.70
2018-03-07T15:36:09.985Z,10.70
2018-03-07T15:38:37.535Z,10.60
2018-03-07T15:41:05.452Z,10.50
2018-03-07T15:43:32.964Z,10.50
2018-03-07T15:46:00.510Z,10.40
2018-03-07T15:48:28.000Z,10.30
2018-03-07T15:50:55.520Z,10.20
2018-03-07T15:53:23.039Z,10.20
2018-03-07T15:55:50.538Z,10.10
2018-03-07T15:58:18.438Z,10.00
2018-03-07T16:00:45.930Z,10.00
2018-03-07T16:03:13.536Z,9.80
2018-03-07T16:05:41.516Z,9.60
2018-03-07T16:08:11.920Z,9.60
2018-03-07T16:10:40.275Z,9.60
2018-03-07T16:13:07.793Z,9.50
2018-03-07T16:15:35.307Z,9.50
2018-03-07T16:18:03.214Z,9.30
2018-03-07T16:20:30.712Z,9.40
2018-03-07T16:22:58.218Z,9.30
2018-03-07T16:25:28.131Z,9.30
2018-03-07T16:27:55.628Z,9.20
2018-03-07T16:30:23.127Z,9.10
2018-03-07T16:32:51.011Z,8.90
2018-03-07T16:35:18.581Z,8.90
2018-03-07T16:37:46.107Z,8.80
2018-03-07T16:40:14.041Z,8.70
2018-03-07T16:42:41.594Z,8.70
2018-03-07T16:45:09.083Z,8.70
2018-03-07T16:47:37.055Z,8.60
2018-03-07T16:50:04.600Z,8.60
2018-03-07T16:52:32.539Z,8.60
2018-03-07T16:55:00.164Z,8.60
2018-03-07T16:57:27.675Z,8.50
2018-03-07T16:59:55.233Z,8.50
2018-03-07T17:02:22.866Z,8.40
2018-03-07T17:04:53.328Z,8.40
2018-03-07T17:07:21.361Z,8.40
2018-03-07T17:09:48.905Z,8.40
2018-03-07T17:12:16.507Z,8.40
2018-03-07T17:14:44.079Z,8.40
2018-03-07T17:17:11.725Z,8.30
2018-03-07T17:19:39.376Z,8.30
2018-03-07T17:22:06.855Z,8.30
2018-03-07T17:24:34.439Z,8.30
2018-03-07T17:27:02.520Z,8.30
2018-03-07T17:29:30.031Z,8.30
2018-03-07T17:31:57.533Z,8.20
2018-03-07T17:34:25.024Z,8.20
2018-03-07T17:36:52.519Z,8.20
2018-03-07T17:39:20.069Z,8.20
2018-03-07T17:41:47.978Z,8.10
2018-03-07T17:44:15.504Z,8.10
2018-03-07T17:46:43.397Z,8.10
2018-03-07T17:49:10.895Z,8.10
2018-03-07T17:51:38.387Z,8.10
2018-03-07T17:54:05.889Z,8.10
2018-03-07T17:56:33.382Z,8.10
2018-03-07T17:59:01.863Z,8.00
2018-03-07T18:01:29.762Z,8.00
2018-03-07T18:03:57.639Z,8.00
2018-03-07T18:06:25.159Z,8.00
2018-03-07T18:08:52.716Z,7.90
2018-03-07T18:11:20.215Z,7.90
2018-03-07T18:13:47.752Z,7.90
2018-03-07T18:16:15.652Z,7.80
2018-03-07T18:18:43.206Z,7.80
2018-03-07T18:21:10.719Z,7.80
2018-03-07T18:23:38.239Z,7.70
2018-03-07T18:26:05.735Z,7.70
2018-03-07T18:28:33.229Z,7.70
2018-03-07T18:31:00.752Z,7.60
2018-03-07T18:33:28.238Z,7.50
2018-03-07T18:35:55.766Z,7.50
2018-03-07T18:38:23.280Z,7.40
2018-03-07T18:40:50.788Z,7.30
2018-03-07T18:43:18.281Z,7.20
2018-03-07T18:45:45.776Z,7.20
2018-03-07T18:48:13.259Z,7.10
2018-03-07T18:50:40.747Z,7.10
2018-03-07T18:53:08.246Z,7.00
2018-03-07T18:55:35.735Z,7.00
2018-03-07T18:58:03.673Z,6.90
2018-03-07T19:00:31.169Z,6.90
2018-03-07T19:02:58.746Z,6.90
2018-03-07T19:05:26.241Z,6.80
2018-03-07T19:07:53.737Z,6.70
2018-03-07T19:10:21.690Z,6.50
2018-03-07T19:12:49.631Z,6.40
2018-03-07T19:15:19.081Z,6.30
2018-03-07T19:17:47.028Z,6.30
2018-03-07T19:20:18.432Z,6.20
2018-03-07T19:22:45.954Z,6.20
2018-03-07T19:25:13.863Z,6.20
2018-03-07T19:27:41.351Z,6.20
2018-03-07T19:30:09.128Z,6.20
2018-03-07T19:32:36.701Z,6.10
2018-03-07T19:35:04.612Z,6.10
2018-03-07T19:37:32.195Z,6.10
2018-03-07T19:39:59.681Z,6.10
2018-03-07T19:42:27.584Z,6.10
2018-03-07T19:44:55.079Z,6.10
2018-03-07T19:47:22.602Z,6.10
2018-03-07T19:49:50.107Z,6.10
2018-03-07T19:52:19.488Z,6.10
2018-03-07T19:54:49.591Z,6.10
2018-03-07T19:57:17.164Z,6.10
2018-03-07T19:59:44.679Z,6.10
2018-03-07T20:02:12.212Z,6.10
2018-03-07T20:04:40.110Z,6.10
2018-03-07T20:07:08.588Z,6.10
2018-03-07T20:09:36.108Z,6.10
2018-03-07T20:12:04.009Z,6.10
2018-03-07T20:14:31.500Z,6.10
2018-03-07T20:16:59.052Z,6.10
2018-03-07T20:19:26.639Z,6.10
2018-03-07T20:21:54.147Z,6.10
2018-03-07T20:24:21.669Z,6.10
2018-03-07T20:26:49.579Z,6.00
2018-03-07T20:29:17.078Z,6.00
2018-03-07T20:31:44.608Z,6.00
2018-03-07T20:34:12.126Z,6.00
2018-03-07T20:36:39.626Z,6.00
2018-03-07T20:39:07.121Z,6.00
2018-03-07T20:41:35.042Z,6.00
2018-03-07T20:44:03.140Z,6.00
2018-03-07T20:46:30.653Z,6.00
2018-03-07T20:48:58.164Z,6.00
2018-03-07T20:51:26.091Z,6.00
2018-03-07T20:53:53.611Z,6.00
2018-03-07T20:56:21.551Z,6.00
2018-03-07T20:58:49.067Z,6.00
2018-03-07T21:01:16.624Z,6.00
2018-03-07T21:03:44.781Z,6.00
2018-03-07T21:06:12.343Z,6.00
2018-03-07T21:08:39.851Z,6.00
2018-03-07T21:11:07.348Z,6.00
2018-03-07T21:13:34.856Z,5.90
2018-03-07T21:16:02.405Z,5.90
2018-03-07T21:18:30.736Z,5.90
2018-03-07T21:20:58.242Z,5.90
2018-03-07T21:23:25.744Z,5.90
2018-03-07T21:25:53.351Z,5.90
2018-03-07T21:28:20.863Z,5.90
2018-03-07T21:30:48.921Z,5.90
2018-03-07T21:33:16.824Z,5.90
2018-03-07T21:35:44.324Z,5.90
2018-03-07T21:38:11.848Z,5.90
2018-03-07T21:40:39.405Z,5.90
2018-03-07T21:43:07.256Z,5.90
2018-03-07T21:45:34.757Z,5.90
2018-03-07T21:48:02.259Z,5.90
2018-03-07T21:50:30.164Z,6.00
2018-03-07T21:52:57.678Z,6.00
2018-03-07T21:55:25.586Z,6.00
2018-03-07T21:57:53.084Z,6.00
2018-03-07T22:00:20.623Z,6.10
2018-03-07T22:02:49.192Z,6.00
2018-03-07T22:05:18.506Z,6.10
2018-03-07T22:07:48.496Z,6.10
2018-03-07T22:10:18.019Z,6.10
2018-03-07T22:12:48.093Z,6.10
2018-03-07T22:15:18.425Z,6.10
2018-03-07T22:17:47.725Z,6.10
2018-03-07T22:20:17.216Z,6.10
2018-03-07T22:22:47.150Z,6.10
2018-03-07T22:25:17.425Z,6.10
2018-03-07T22:27:47.703Z,6.10
2018-03-07T22:30:16.798Z,6.10
2018-03-07T22:32:47.836Z,6.10
2018-03-07T22:35:18.640Z,6.00
2018-03-07T22:37:49.123Z,6.10
2018-03-07T22:40:20.116Z,6.10
2018-03-07T22:42:50.606Z,6.00
2018-03-07T22:45:21.743Z,6.00
2018-03-07T22:47:51.549Z,6.00
2018-03-07T22:50:21.494Z,6.00
2018-03-07T22:52:52.801Z,6.00
2018-03-07T22:55:23.645Z,6.00
2018-03-07T22:57:52.160Z,6.00
2018-03-07T23:00:26.205Z,6.00
2018-03-07T23:02:54.724Z,5.90
2018-03-07T23:05:22.261Z,5.90
2018-03-07T23:07:49.807Z,5.90
2018-03-07T23:10:17.377Z,5.90
2018-03-07T23:12:44.868Z,5.90
2018-03-07T23:15:12.411Z,5.90
2018-03-07T23:17:39.911Z,5.90
2018-03-07T23:20:07.431Z,5.80
2018-03-07T23:22:34.933Z,5.80
2018-03-07T23:25:02.424Z,5.80
2018-03-07T23:27:29.952Z,5.80
2018-03-07T23:29:57.444Z,5.80
2018-03-07T23:32:24.946Z,5.70
2018-03-07T23:34:52.850Z,5.60
2018-03-07T23:37:20.348Z,5.60
2018-03-07T23:39:47.852Z,5.60
2018-03-07T23:42:15.367Z,5.60
2018-03-07T23:44:43.304Z,5.60
2018-03-07T23:47:10.808Z,5.60
2018-03-07T23:49:38.693Z,5.50
2018-03-07T23:52:06.199Z,5.50
2018-03-07T23:54:33.694Z,5.50
2018-03-07T23:57:01.661Z,5.50
2018-03-07T23:59:29.587Z,5.50
